createdAt,value
2018-12-14T00:00:06.321Z,11.10
2018-12-14T00:01:06.258Z,10.70
2018-12-14T00:02:06.160Z,10.40
2018-12-14T00:03:06.070Z,10.30
2018-12-14T00:04:05.983Z,10.00
2018-12-14T00:05:05.895Z,10.30
2018-12-14T00:06:05.808Z,11.10
2018-12-14T00:07:05.721Z,10.50
2018-12-14T00:08:05.637Z,10.30
2018-12-14T00:09:05.546Z,10.10
2018-12-14T00:10:05.459Z,10.80
2018-12-14T00:11:05.372Z,10.70
2018-12-14T00:12:05.285Z,10.80
2018-12-14T00:13:05.210Z,10.70
2018-12-14T00:14:05.110Z,10.70
2018-12-14T00:15:05.021Z,10.20
2018-12-14T00:16:04.940Z,10.90
2018-12-14T00:17:04.847Z,10.40
2018-12-14T00:18:04.760Z,10.30
2018-12-14T00:19:04.672Z,9.50
2018-12-14T00:20:04.597Z,10.50
2018-12-14T00:21:04.510Z,10.50
2018-12-14T00:22:04.423Z,10.70
2018-12-14T00:23:04.335Z,10.50
2018-12-14T00:24:04.249Z,10.30
2018-12-14T00:25:04.161Z,10.40
2018-12-14T00:26:04.072Z,11.00
2018-12-14T00:27:03.987Z,10.20
2018-12-14T00:28:03.898Z,10.80
2018-12-14T00:29:03.811Z,10.60
2018-12-14T00:30:03.735Z,10.50
2018-12-14T00:31:03.637Z,10.50
2018-12-14T00:32:03.549Z,10.70
2018-12-14T00:33:03.463Z,11.20
2018-12-14T00:34:03.373Z,11.60
2018-12-14T00:35:03.291Z,10.80
2018-12-14T00:36:03.199Z,11.20
2018-12-14T00:37:03.112Z,10.40
2018-12-14T00:38:03.026Z,11.40
2018-12-14T00:39:02.949Z,10.90
2018-12-14T00:40:02.863Z,10.70
2018-12-14T00:41:02.776Z,11.30
2018-12-14T00:42:02.692Z,11.30
2018-12-14T00:43:02.600Z,11.10
2018-12-14T00:44:02.513Z,11.90
2018-12-14T00:45:02.425Z,11.40
2018-12-14T00:46:02.344Z,11.30
2018-12-14T00:47:02.251Z,11.40
2018-12-14T00:48:02.164Z,11.60
2018-12-14T00:49:02.075Z,11.30
2018-12-14T00:50:01.993Z,11.80
2018-12-14T00:51:01.901Z,10.90
2018-12-14T00:52:01.814Z,12.00
2018-12-14T00:53:01.741Z,11.80
2018-12-14T00:54:01.640Z,12.00
2018-12-14T00:55:01.551Z,11.30
2018-12-14T00:56:01.466Z,11.00
2018-12-14T00:57:01.381Z,11.60
2018-12-14T00:58:01.301Z,11.30
2018-12-14T00:59:01.216Z,11.40
2018-12-14T01:00:01.126Z,11.00
2018-12-14T01:01:01.039Z,11.00
2018-12-14T01:02:00.954Z,11.20
2018-12-14T01:03:00.865Z,11.90
2018-12-14T01:04:00.790Z,10.90
2018-12-14T01:05:00.689Z,10.10
2018-12-14T01:06:00.602Z,11.60
2018-12-14T01:07:00.519Z,10.50
2018-12-14T01:08:00.427Z,10.40
2018-12-14T01:09:00.340Z,11.20
2018-12-14T01:10:00.253Z,10.50
2018-12-14T01:11:00.167Z,10.50
2018-12-14T01:12:00.078Z,10.60
2018-12-14T01:12:59.998Z,11.30
2018-12-14T01:13:59.905Z,10.80
2018-12-14T01:14:59.816Z,10.60
2018-12-14T01:15:59.729Z,10.90
2018-12-14T01:16:59.640Z,10.50
2018-12-14T01:17:59.553Z,10.40
2018-12-14T01:18:59.479Z,10.80
2018-12-14T01:19:59.378Z,10.20
2018-12-14T01:20:59.292Z,10.70
2018-12-14T01:21:59.205Z,10.20
2018-12-14T01:22:59.118Z,9.80
2018-12-14T01:23:59.031Z,10.50
2018-12-14T01:24:58.942Z,9.40
2018-12-14T01:25:58.867Z,10.10
2018-12-14T01:26:58.781Z,10.20
2018-12-14T01:27:58.693Z,10.20
2018-12-14T01:28:58.604Z,10.30
2018-12-14T01:29:58.518Z,9.80
2018-12-14T01:30:58.429Z,10.60
2018-12-14T01:31:58.343Z,9.90
2018-12-14T01:32:58.255Z,10.10
2018-12-14T01:33:58.168Z,9.80
2018-12-14T01:34:58.079Z,9.90
2018-12-14T01:35:57.993Z,9.20
2018-12-14T01:36:57.905Z,9.90
2018-12-14T01:37:57.819Z,10.00
2018-12-14T01:38:57.743Z,9.70
2018-12-14T01:39:57.644Z,10.50
2018-12-14T01:40:57.556Z,10.40
2018-12-14T01:41:57.469Z,10.30
2018-12-14T01:42:57.381Z,10.50
2018-12-14T01:43:57.294Z,10.10
2018-12-14T01:44:57.207Z,9.60
2018-12-14T01:45:57.119Z,10.20
2018-12-14T01:46:57.033Z,10.00
2018-12-14T01:47:56.945Z,9.90
2018-12-14T01:48:56.860Z,10.20
2018-12-14T01:49:56.770Z,10.10
2018-12-14T01:50:56.684Z,9.70
2018-12-14T01:51:56.595Z,9.90
2018-12-14T01:52:56.507Z,10.60
2018-12-14T01:53:56.419Z,10.60
2018-12-14T01:54:56.332Z,10.00
2018-12-14T01:55:56.246Z,10.20
2018-12-14T01:56:56.158Z,10.20
2018-12-14T01:57:56.082Z,10.20
2018-12-14T01:58:55.984Z,10.30
2018-12-14T01:59:55.920Z,9.80
2018-12-14T02:00:55.820Z,9.90
2018-12-14T02:01:55.733Z,9.80
2018-12-14T02:02:55.646Z,10.50
2018-12-14T02:03:55.558Z,9.60
2018-12-14T02:04:55.472Z,10.10
2018-12-14T02:05:55.383Z,9.80
2018-12-14T02:06:55.297Z,10.20
2018-12-14T02:07:55.209Z,9.80
2018-12-14T02:08:55.121Z,10.20
2018-12-14T02:09:55.033Z,9.90
2018-12-14T02:10:54.948Z,10.00
2018-12-14T02:11:54.859Z,9.70
2018-12-14T02:12:54.773Z,10.30
2018-12-14T02:13:54.684Z,10.40
2018-12-14T02:14:54.597Z,10.10
2018-12-14T02:15:54.509Z,9.90
2018-12-14T02:16:54.423Z,10.30
2018-12-14T02:17:54.335Z,10.20
2018-12-14T02:18:54.248Z,10.10
2018-12-14T02:19:54.160Z,10.30
2018-12-14T02:20:54.073Z,10.30
2018-12-14T02:21:53.997Z,10.30
2018-12-14T02:22:53.898Z,10.50
2018-12-14T02:23:53.810Z,10.60
2018-12-14T02:24:53.723Z,10.60
2018-12-14T02:25:53.635Z,10.50
2018-12-14T02:26:53.548Z,10.00
2018-12-14T02:27:53.462Z,10.50
2018-12-14T02:28:53.374Z,10.10
2018-12-14T02:29:53.299Z,10.90
2018-12-14T02:30:53.200Z,10.10
2018-12-14T02:31:53.111Z,10.30
2018-12-14T02:32:53.027Z,10.00
2018-12-14T02:33:52.951Z,10.30
2018-12-14T02:34:52.854Z,10.40
2018-12-14T02:35:52.761Z,10.80
2018-12-14T02:36:52.678Z,10.50
2018-12-14T02:37:52.588Z,10.80
2018-12-14T02:38:52.501Z,10.60
2018-12-14T02:39:52.413Z,10.20
2018-12-14T02:40:52.326Z,11.50
2018-12-14T02:41:52.237Z,10.70
2018-12-14T02:42:52.150Z,10.80
2018-12-14T02:43:52.062Z,11.30
2018-12-14T02:44:51.985Z,10.70
2018-12-14T02:45:51.889Z,11.60
2018-12-14T02:46:51.801Z,11.50
2018-12-14T02:47:51.713Z,11.90
2018-12-14T02:48:51.627Z,12.50
2018-12-14T02:49:51.539Z,12.40
2018-12-14T02:50:51.453Z,12.60
2018-12-14T02:51:51.363Z,12.20
2018-12-14T02:52:51.277Z,13.00
2018-12-14T02:53:51.190Z,12.40
2018-12-14T02:54:51.102Z,13.40
2018-12-14T02:55:51.014Z,12.80
2018-12-14T02:56:50.927Z,12.20
2018-12-14T02:57:50.840Z,12.80
2018-12-14T02:58:50.753Z,12.50
2018-12-14T02:59:50.665Z,12.50
2018-12-14T03:00:50.577Z,12.40
2018-12-14T03:01:50.489Z,13.00
2018-12-14T03:02:50.405Z,12.60
2018-12-14T03:03:50.315Z,13.20
2018-12-14T03:04:50.229Z,12.60
2018-12-14T03:05:50.140Z,13.20
2018-12-14T03:06:50.053Z,13.30
2018-12-14T03:07:49.979Z,12.80
2018-12-14T03:08:49.878Z,11.60
2018-12-14T03:09:49.791Z,12.70
2018-12-14T03:10:49.704Z,13.40
2018-12-14T03:11:49.619Z,13.10
2018-12-14T03:12:49.541Z,12.90
2018-12-14T03:13:49.441Z,13.30
2018-12-14T03:14:49.355Z,14.00
2018-12-14T03:15:49.267Z,13.70
2018-12-14T03:16:49.181Z,12.80
2018-12-14T03:17:49.093Z,13.80
2018-12-14T03:18:49.006Z,12.80
2018-12-14T03:19:48.918Z,13.40
2018-12-14T03:20:48.831Z,12.20
2018-12-14T03:21:48.743Z,12.70
2018-12-14T03:22:48.660Z,13.10
2018-12-14T03:23:48.568Z,13.50
2018-12-14T03:24:48.494Z,13.50
2018-12-14T03:25:48.401Z,13.00
2018-12-14T03:26:48.310Z,13.00
2018-12-14T03:27:48.242Z,13.70
2018-12-14T03:28:48.149Z,13.50
2018-12-14T03:29:48.056Z,13.50
2018-12-14T03:30:47.959Z,13.30
2018-12-14T03:31:47.871Z,13.00
2018-12-14T03:32:47.795Z,13.50
2018-12-14T03:33:47.706Z,13.50
2018-12-14T03:34:47.618Z,13.60
2018-12-14T03:35:47.533Z,14.40
2018-12-14T03:36:47.445Z,13.20
2018-12-14T03:37:47.357Z,13.90
2018-12-14T03:38:47.271Z,13.20
2018-12-14T03:39:47.185Z,14.50
2018-12-14T03:40:47.095Z,14.40
2018-12-14T03:41:47.008Z,14.60
2018-12-14T03:42:46.921Z,13.70
2018-12-14T03:43:46.838Z,14.30
2018-12-14T03:44:46.765Z,14.40
2018-12-14T03:45:46.659Z,14.50
2018-12-14T03:46:46.571Z,15.20
2018-12-14T03:47:46.484Z,14.80
2018-12-14T03:48:46.396Z,14.60
2018-12-14T03:49:46.310Z,15.10
2018-12-14T03:50:46.304Z,15.00
2018-12-14T03:51:46.135Z,15.10
2018-12-14T03:52:46.047Z,14.90
2018-12-14T03:53:45.961Z,15.80
2018-12-14T03:54:45.872Z,15.50
2018-12-14T03:55:45.785Z,15.40
2018-12-14T03:56:45.696Z,15.00
2018-12-14T03:57:45.614Z,15.60
2018-12-14T03:58:45.522Z,15.30
2018-12-14T03:59:45.435Z,15.30
2018-12-14T04:00:45.348Z,14.60
2018-12-14T04:01:45.260Z,15.50
2018-12-14T04:02:45.175Z,14.40
2018-12-14T04:03:45.089Z,15.30
2018-12-14T04:04:44.997Z,14.30
2018-12-14T04:05:44.913Z,14.80
2018-12-14T04:06:44.827Z,14.70
2018-12-14T04:07:44.740Z,16.40
2018-12-14T04:08:44.648Z,14.80
2018-12-14T04:09:44.562Z,14.60
2018-12-14T04:10:44.475Z,14.90
2018-12-14T04:11:44.387Z,15.40
2018-12-14T04:12:44.301Z,14.80
2018-12-14T04:13:44.226Z,14.90
2018-12-14T04:14:44.124Z,14.80
2018-12-14T04:15:44.571Z,15.20
2018-12-14T04:16:43.952Z,15.40
2018-12-14T04:17:43.864Z,14.80
2018-12-14T04:18:43.777Z,14.60
2018-12-14T04:19:43.689Z,14.80
2018-12-14T04:20:43.600Z,15.00
2018-12-14T04:21:43.514Z,15.40
2018-12-14T04:22:43.425Z,14.30
2018-12-14T04:23:43.338Z,16.00
2018-12-14T04:24:43.264Z,15.40
2018-12-14T04:25:43.163Z,15.00
2018-12-14T04:26:43.076Z,15.20
2018-12-14T04:27:43.006Z,15.10
2018-12-14T04:28:42.900Z,15.00
2018-12-14T04:29:42.815Z,15.00
2018-12-14T04:30:42.725Z,15.20
2018-12-14T04:31:42.641Z,15.00
2018-12-14T04:32:42.565Z,15.30
2018-12-14T04:33:42.464Z,14.80
2018-12-14T04:34:42.376Z,14.90
2018-12-14T04:35:42.290Z,15.90
2018-12-14T04:36:42.202Z,14.50
2018-12-14T04:37:42.115Z,15.10
2018-12-14T04:38:42.030Z,14.70
2018-12-14T04:39:41.939Z,14.30
2018-12-14T04:40:41.864Z,13.80
2018-12-14T04:41:41.766Z,14.50
2018-12-14T04:42:48.604Z,14.50
2018-12-14T04:43:41.660Z,13.80
2018-12-14T04:44:41.502Z,14.00
2018-12-14T04:45:41.416Z,14.60
2018-12-14T04:46:41.327Z,14.40
2018-12-14T04:47:41.253Z,13.70
2018-12-14T04:48:41.166Z,12.90
2018-12-14T04:49:41.069Z,13.50
2018-12-14T04:50:40.980Z,13.50
2018-12-14T04:51:40.893Z,13.60
2018-12-14T04:52:40.807Z,13.00
2018-12-14T04:53:40.720Z,13.50
2018-12-14T04:54:40.629Z,14.20
2018-12-14T04:55:40.542Z,13.70
2018-12-14T04:56:40.455Z,13.50
2018-12-14T04:57:40.368Z,12.60
2018-12-14T04:58:40.282Z,13.40
2018-12-14T04:59:40.193Z,12.80
2018-12-14T05:00:40.104Z,12.90
2018-12-14T05:01:40.018Z,12.40
2018-12-14T05:02:39.929Z,12.60
2018-12-14T05:03:39.845Z,13.30
2018-12-14T05:04:39.765Z,12.90
2018-12-14T05:05:39.668Z,12.90
2018-12-14T05:06:39.580Z,13.40
2018-12-14T05:07:39.493Z,12.20
2018-12-14T05:08:39.405Z,12.50
2018-12-14T05:09:39.318Z,12.70
2018-12-14T05:10:39.235Z,12.20
2018-12-14T05:11:39.420Z,12.70
2018-12-14T05:12:39.055Z,12.80
2018-12-14T05:13:38.970Z,12.40
2018-12-14T05:14:38.881Z,12.20
2018-12-14T05:15:38.784Z,12.50
2018-12-14T05:16:38.705Z,12.70
2018-12-14T05:17:38.607Z,12.10
2018-12-14T05:18:38.519Z,12.30
2018-12-14T05:19:38.431Z,12.80
2018-12-14T05:20:38.345Z,12.00
2018-12-14T05:21:38.257Z,12.30
2018-12-14T05:22:38.188Z,12.30
2018-12-14T05:23:38.083Z,13.60
2018-12-14T05:24:37.995Z,12.40
2018-12-14T05:25:37.913Z,12.20
2018-12-14T05:26:37.832Z,12.00
2018-12-14T05:27:37.734Z,12.20
2018-12-14T05:28:37.645Z,12.20
2018-12-14T05:29:37.569Z,12.60
2018-12-14T05:30:37.471Z,12.70
2018-12-14T05:31:37.383Z,12.90
2018-12-14T05:32:37.296Z,12.80
2018-12-14T05:33:37.207Z,12.70
2018-12-14T05:34:37.133Z,12.80
2018-12-14T05:35:37.033Z,13.20
2018-12-14T05:36:36.947Z,14.50
2018-12-14T05:37:36.871Z,13.60
2018-12-14T05:38:36.771Z,13.30
2018-12-14T05:39:36.683Z,13.00
2018-12-14T05:40:36.599Z,13.30
2018-12-14T05:41:36.509Z,13.60
2018-12-14T05:42:36.421Z,14.20
2018-12-14T05:43:36.335Z,13.80
2018-12-14T05:44:36.247Z,13.60
2018-12-14T05:45:36.171Z,14.20
2018-12-14T05:46:36.074Z,14.60
2018-12-14T05:47:35.984Z,14.80
2018-12-14T05:48:35.899Z,14.90
2018-12-14T05:49:35.814Z,14.50
2018-12-14T05:50:35.723Z,15.00
2018-12-14T05:51:35.639Z,15.60
2018-12-14T05:52:35.548Z,14.90
2018-12-14T05:53:35.473Z,16.10
2018-12-14T05:54:35.374Z,15.50
2018-12-14T05:55:35.287Z,16.30
2018-12-14T05:56:35.198Z,15.60
2018-12-14T05:57:35.110Z,16.90
2018-12-14T05:58:35.025Z,17.60
2018-12-14T05:59:34.938Z,16.90
2018-12-14T06:00:34.849Z,17.50
2018-12-14T06:01:34.760Z,17.20
2018-12-14T06:02:34.674Z,18.20
2018-12-14T06:03:34.592Z,19.30
2018-12-14T06:04:34.501Z,18.20
2018-12-14T06:05:34.411Z,18.10
2018-12-14T06:06:34.325Z,18.70
2018-12-14T06:07:34.238Z,18.10
2018-12-14T06:08:34.149Z,18.90
2018-12-14T06:09:34.066Z,19.80
2018-12-14T06:10:33.975Z,19.30
2018-12-14T06:11:33.887Z,17.90
2018-12-14T06:12:33.801Z,19.00
2018-12-14T06:13:33.712Z,18.60
2018-12-14T06:14:33.625Z,19.20
2018-12-14T06:15:33.542Z,19.50
2018-12-14T06:16:33.450Z,19.00
2018-12-14T06:17:33.378Z,20.70
2018-12-14T06:18:33.277Z,18.30
2018-12-14T06:19:33.188Z,20.20
2018-12-14T06:20:33.101Z,20.20
2018-12-14T06:21:33.015Z,19.30
2018-12-14T06:22:32.927Z,20.60
2018-12-14T06:23:32.838Z,20.50
2018-12-14T06:24:32.751Z,19.60
2018-12-14T06:25:32.663Z,19.90
2018-12-14T06:26:32.565Z,19.80
2018-12-14T06:27:32.488Z,20.00
2018-12-14T06:28:32.393Z,18.90
2018-12-14T06:29:32.314Z,19.60
2018-12-14T06:30:32.214Z,20.10
2018-12-14T06:31:32.126Z,19.80
2018-12-14T06:32:32.039Z,19.30
2018-12-14T06:33:31.958Z,20.00
2018-12-14T06:34:31.867Z,20.80
2018-12-14T06:35:31.778Z,20.30
2018-12-14T06:36:31.690Z,19.70
2018-12-14T06:37:31.603Z,19.30
2018-12-14T06:38:31.529Z,18.70
2018-12-14T06:39:31.427Z,19.10
2018-12-14T06:40:31.340Z,19.50
2018-12-14T06:41:31.254Z,19.20
2018-12-14T06:42:31.165Z,18.70
2018-12-14T06:43:31.078Z,19.10
2018-12-14T06:44:30.990Z,20.00
2018-12-14T06:45:30.903Z,20.40
2018-12-14T06:46:30.816Z,19.70
2018-12-14T06:47:30.729Z,19.50
2018-12-14T06:48:30.641Z,20.00
2018-12-14T06:49:30.554Z,18.60
2018-12-14T06:50:30.466Z,19.40
2018-12-14T06:51:30.380Z,19.60
2018-12-14T06:52:30.291Z,19.60
2018-12-14T06:53:30.216Z,19.00
2018-12-14T06:54:30.116Z,18.90
2018-12-14T06:55:30.029Z,18.00
2018-12-14T06:56:29.954Z,18.30
2018-12-14T06:57:29.854Z,17.70
2018-12-14T06:58:29.769Z,19.10
2018-12-14T06:59:29.680Z,18.90
2018-12-14T07:00:29.593Z,17.80
2018-12-14T07:01:29.504Z,17.40
2018-12-14T07:02:29.419Z,16.90
2018-12-14T07:03:29.331Z,18.00
2018-12-14T07:04:29.255Z,16.90
2018-12-14T07:05:29.155Z,17.60
2018-12-14T07:06:29.067Z,16.70
2018-12-14T07:07:28.980Z,17.50
2018-12-14T07:08:28.892Z,18.20
2018-12-14T07:09:28.807Z,17.50
2018-12-14T07:10:28.717Z,17.30
2018-12-14T07:11:28.631Z,18.10
2018-12-14T07:12:28.543Z,17.50
2018-12-14T07:13:28.456Z,17.50
2018-12-14T07:14:28.368Z,17.70
2018-12-14T07:15:28.282Z,17.10
2018-12-14T07:16:28.198Z,18.70
2018-12-14T07:17:28.109Z,17.30
2018-12-14T07:18:28.018Z,18.10
2018-12-14T07:19:28.660Z,17.60
2018-12-14T07:20:27.847Z,17.50
2018-12-14T07:21:27.757Z,17.90
2018-12-14T07:22:27.669Z,17.20
2018-12-14T07:23:27.582Z,17.00
2018-12-14T07:24:27.494Z,17.20
2018-12-14T07:25:27.407Z,18.20
2018-12-14T07:26:27.319Z,17.50
2018-12-14T07:27:27.232Z,17.40
2018-12-14T07:28:27.146Z,17.80
2018-12-14T07:29:27.059Z,17.70
2018-12-14T07:30:26.971Z,17.30
2018-12-14T07:31:26.883Z,17.60
2018-12-14T07:32:26.795Z,17.50
2018-12-14T07:33:26.709Z,18.60
2018-12-14T07:34:26.620Z,17.10
2018-12-14T07:35:26.534Z,17.70
2018-12-14T07:36:26.445Z,18.30
2018-12-14T07:37:26.358Z,17.00
2018-12-14T07:38:26.271Z,17.50
2018-12-14T07:39:26.184Z,17.30
2018-12-14T07:40:26.096Z,17.40
2018-12-14T07:41:26.009Z,15.90
2018-12-14T07:42:25.921Z,17.50
2018-12-14T07:43:28.360Z,17.70
2018-12-14T07:44:25.821Z,17.00
2018-12-14T07:45:25.660Z,17.30
2018-12-14T07:46:25.572Z,17.50
2018-12-14T07:47:25.485Z,17.60
2018-12-14T07:48:25.399Z,17.40
2018-12-14T07:49:25.310Z,17.70
2018-12-14T07:50:25.222Z,17.80
2018-12-14T07:51:25.140Z,17.70
2018-12-14T07:52:25.059Z,17.30
2018-12-14T07:53:24.967Z,17.40
2018-12-14T07:54:24.873Z,16.10
2018-12-14T07:55:24.786Z,17.30
2018-12-14T07:56:24.698Z,17.80
2018-12-14T07:57:24.612Z,17.90
2018-12-14T07:58:24.523Z,17.30
2018-12-14T07:59:24.438Z,17.00
2018-12-14T08:00:24.349Z,17.30
2018-12-14T08:01:24.262Z,17.70
2018-12-14T08:02:24.174Z,17.60
2018-12-14T08:03:24.077Z,17.60
2018-12-14T08:04:24.016Z,17.40
2018-12-14T08:05:23.915Z,17.80
2018-12-14T08:06:23.816Z,17.70
2018-12-14T08:07:23.728Z,17.20
2018-12-14T08:08:23.649Z,17.70
2018-12-14T08:09:23.554Z,17.90
2018-12-14T08:10:23.463Z,17.10
2018-12-14T08:11:23.376Z,17.60
2018-12-14T08:12:23.289Z,18.00
2018-12-14T08:13:23.201Z,17.60
2018-12-14T08:14:23.113Z,17.80
2018-12-14T08:15:23.026Z,17.10
2018-12-14T08:16:22.951Z,16.80
2018-12-14T08:17:22.852Z,17.00
2018-12-14T08:18:22.764Z,18.00
2018-12-14T08:19:22.676Z,17.40
2018-12-14T08:20:22.601Z,17.30
2018-12-14T08:21:22.502Z,18.00
2018-12-14T08:22:22.414Z,17.80
2018-12-14T08:23:22.327Z,17.80
2018-12-14T08:24:22.240Z,19.00
2018-12-14T08:25:22.152Z,17.90
2018-12-14T08:26:22.064Z,17.40
2018-12-14T08:27:21.977Z,17.50
2018-12-14T08:28:21.891Z,17.50
2018-12-14T08:29:21.803Z,17.80
2018-12-14T08:30:21.718Z,18.20
2018-12-14T08:31:21.628Z,17.60
2018-12-14T08:32:21.540Z,17.50
2018-12-14T08:33:21.457Z,17.80
2018-12-14T08:34:21.365Z,17.00
2018-12-14T08:35:21.291Z,17.00
2018-12-14T08:36:21.192Z,17.60
2018-12-14T08:37:21.105Z,17.10
2018-12-14T08:38:21.021Z,17.30
2018-12-14T08:39:20.931Z,17.10
2018-12-14T08:40:20.855Z,18.00
2018-12-14T08:41:20.766Z,18.10
2018-12-14T08:42:20.667Z,17.50
2018-12-14T08:43:20.591Z,18.10
2018-12-14T08:44:20.504Z,17.80
2018-12-14T08:45:20.423Z,17.40
2018-12-14T08:46:20.330Z,17.60
2018-12-14T08:47:20.243Z,17.60
2018-12-14T08:48:20.154Z,16.80
2018-12-14T08:49:20.068Z,17.50
2018-12-14T08:50:19.994Z,18.40
2018-12-14T08:51:19.894Z,16.70
2018-12-14T08:52:19.804Z,18.70
2018-12-14T08:53:19.717Z,17.80
2018-12-14T08:54:19.630Z,18.00
2018-12-14T08:55:19.544Z,18.00
2018-12-14T08:56:19.455Z,17.50
2018-12-14T08:57:19.427Z,18.10
2018-12-14T08:58:19.282Z,17.10
2018-12-14T08:59:19.193Z,18.00
2018-12-14T09:00:19.117Z,17.80
2018-12-14T09:01:19.020Z,17.20
2018-12-14T09:02:18.931Z,17.10
2018-12-14T09:03:18.845Z,17.50
2018-12-14T09:04:18.757Z,17.40
2018-12-14T09:05:18.669Z,17.80
2018-12-14T09:06:18.584Z,17.40
2018-12-14T09:07:24.411Z,17.20
2018-12-14T09:08:18.407Z,17.20
2018-12-14T09:09:18.320Z,17.30
2018-12-14T09:10:18.232Z,16.80
2018-12-14T09:11:18.145Z,17.40
2018-12-14T09:12:18.058Z,17.50
2018-12-14T09:13:17.971Z,16.80
2018-12-14T09:14:17.883Z,16.70
2018-12-14T09:15:17.797Z,16.20
2018-12-14T09:16:17.707Z,16.40
2018-12-14T09:17:17.625Z,16.30
2018-12-14T09:18:17.534Z,16.60
2018-12-14T09:19:17.446Z,17.00
2018-12-14T09:20:17.359Z,15.30
2018-12-14T09:21:17.272Z,16.00
2018-12-14T09:22:17.184Z,16.40
2018-12-14T09:23:17.097Z,16.00
2018-12-14T09:24:17.023Z,16.30
2018-12-14T09:25:16.935Z,15.90
2018-12-14T09:26:16.847Z,15.80
2018-12-14T09:27:16.759Z,16.40
2018-12-14T09:28:16.672Z,16.00
2018-12-14T09:29:16.585Z,15.60
2018-12-14T09:30:16.499Z,15.90
2018-12-14T09:31:16.423Z,14.90
2018-12-14T09:32:16.322Z,15.50
2018-12-14T09:33:16.248Z,15.80
2018-12-14T09:34:16.153Z,15.40
2018-12-14T09:35:16.060Z,15.00
2018-12-14T09:36:15.976Z,16.50
2018-12-14T09:37:15.890Z,15.30
2018-12-14T09:38:15.798Z,15.30
2018-12-14T09:39:15.724Z,15.50
2018-12-14T09:40:15.624Z,16.60
2018-12-14T09:41:16.321Z,14.80
2018-12-14T09:42:15.450Z,15.70
2018-12-14T09:43:15.362Z,15.80
2018-12-14T09:44:15.274Z,15.90
2018-12-14T09:45:15.186Z,14.80
2018-12-14T09:46:15.100Z,15.40
2018-12-14T09:47:15.024Z,15.50
2018-12-14T09:48:14.924Z,14.60
2018-12-14T09:49:14.837Z,16.00
2018-12-14T09:50:14.750Z,15.20
2018-12-14T09:51:14.665Z,16.10
2018-12-14T09:52:14.586Z,14.30
2018-12-14T09:53:14.499Z,15.10
2018-12-14T09:54:14.414Z,14.40
2018-12-14T09:55:14.326Z,14.90
2018-12-14T09:56:14.237Z,15.30
2018-12-14T09:57:14.151Z,15.20
2018-12-14T09:58:14.076Z,14.80
2018-12-14T09:59:13.976Z,14.70
2018-12-14T10:00:13.889Z,15.10
2018-12-14T10:01:14.485Z,14.00
2018-12-14T10:02:13.714Z,14.70
2018-12-14T10:03:13.626Z,14.00
2018-12-14T10:04:13.537Z,13.80
2018-12-14T10:05:13.457Z,14.30
2018-12-14T10:06:15.764Z,13.40
2018-12-14T10:07:13.277Z,13.80
2018-12-14T10:08:13.188Z,14.60
2018-12-14T10:09:13.102Z,14.10
2018-12-14T10:10:13.014Z,14.50
2018-12-14T10:11:12.927Z,14.30
2018-12-14T10:12:12.840Z,14.20
2018-12-14T10:13:12.766Z,13.90
2018-12-14T10:14:12.678Z,14.40
2018-12-14T10:15:12.589Z,14.20
2018-12-14T10:16:12.503Z,13.90
2018-12-14T10:17:12.415Z,13.40
2018-12-14T10:18:12.328Z,13.40
2018-12-14T10:19:12.239Z,13.10
2018-12-14T10:20:12.153Z,13.00
2018-12-14T10:21:12.065Z,13.60
2018-12-14T10:22:11.978Z,13.60
2018-12-14T10:23:11.890Z,13.00
2018-12-14T10:24:11.812Z,13.50
2018-12-14T10:25:11.716Z,12.80
2018-12-14T10:26:11.629Z,11.70
2018-12-14T10:27:11.544Z,12.50
2018-12-14T10:28:11.454Z,12.70
2018-12-14T10:29:11.379Z,12.90
2018-12-14T10:30:11.280Z,12.90
2018-12-14T10:31:11.207Z,12.60
2018-12-14T10:32:11.116Z,12.80
2018-12-14T10:33:11.033Z,12.90
2018-12-14T10:34:10.941Z,12.90
2018-12-14T10:35:10.855Z,12.50
2018-12-14T10:36:10.767Z,12.60
2018-12-14T10:37:10.680Z,12.40
2018-12-14T10:38:10.594Z,12.30
2018-12-14T10:39:10.505Z,12.30
2018-12-14T10:40:10.417Z,12.60
2018-12-14T10:41:10.330Z,12.50
2018-12-14T10:42:10.242Z,13.50
2018-12-14T10:43:10.166Z,13.40
2018-12-14T10:44:10.067Z,12.90
2018-12-14T10:45:09.981Z,13.20
2018-12-14T10:46:09.894Z,13.00
2018-12-14T10:47:09.817Z,13.10
2018-12-14T10:48:09.730Z,14.60
2018-12-14T10:49:09.643Z,13.20
2018-12-14T10:50:09.555Z,12.90
2018-12-14T10:51:09.468Z,13.00
2018-12-14T10:52:09.381Z,12.70
2018-12-14T10:53:09.293Z,12.00
2018-12-14T10:54:09.206Z,11.40
2018-12-14T10:55:09.118Z,12.80
2018-12-14T10:56:09.033Z,12.30
2018-12-14T10:57:08.959Z,11.90
2018-12-14T10:58:08.857Z,11.40
2018-12-14T10:59:08.770Z,11.90
2018-12-14T11:00:08.709Z,12.40
2018-12-14T11:01:08.606Z,12.10
2018-12-14T11:02:08.519Z,12.20
2018-12-14T11:03:08.433Z,12.50
2018-12-14T11:04:08.344Z,11.20
2018-12-14T11:05:08.258Z,11.50
2018-12-14T11:06:08.169Z,12.50
2018-12-14T11:07:08.082Z,11.90
2018-12-14T11:08:07.995Z,12.40
2018-12-14T11:09:07.907Z,12.70
2018-12-14T11:10:07.821Z,10.80
2018-12-14T11:11:07.744Z,10.90
2018-12-14T11:12:07.646Z,10.50
2018-12-14T11:13:07.579Z,10.90
2018-12-14T11:14:13.793Z,11.20
2018-12-14T11:15:07.396Z,10.90
2018-12-14T11:16:07.309Z,12.00
2018-12-14T11:17:07.220Z,11.60
2018-12-14T11:18:07.135Z,11.00
2018-12-14T11:19:07.047Z,12.10
2018-12-14T11:20:06.960Z,11.20
2018-12-14T11:21:06.872Z,10.80
2018-12-14T11:22:06.784Z,11.20
2018-12-14T11:23:06.697Z,10.80
2018-12-14T11:24:06.621Z,10.60
2018-12-14T11:25:06.534Z,11.20
2018-12-14T11:26:06.446Z,10.00
2018-12-14T11:27:06.364Z,11.20
2018-12-14T11:28:06.285Z,11.00
2018-12-14T11:29:06.185Z,11.00
2018-12-14T11:30:06.096Z,11.20
2018-12-14T11:31:06.010Z,10.60
2018-12-14T11:32:05.922Z,11.50
2018-12-14T11:33:05.836Z,10.70
2018-12-14T11:34:05.747Z,10.90
2018-12-14T11:35:05.663Z,11.40
2018-12-14T11:36:05.575Z,11.10
2018-12-14T11:37:05.499Z,11.70
2018-12-14T11:38:05.411Z,11.10
2018-12-14T11:39:05.327Z,10.80
2018-12-14T11:40:05.236Z,10.60
2018-12-14T11:41:05.163Z,10.60
2018-12-14T11:42:05.062Z,11.00
2018-12-14T11:43:04.973Z,10.40
2018-12-14T11:44:04.887Z,11.40
2018-12-14T11:45:04.799Z,11.40
2018-12-14T11:46:04.723Z,10.70
2018-12-14T11:47:04.624Z,10.50
2018-12-14T11:48:04.549Z,10.30
2018-12-14T11:49:04.464Z,10.00
2018-12-14T11:50:04.375Z,9.20
2018-12-14T11:51:04.292Z,9.70
2018-12-14T11:52:04.211Z,9.00
2018-12-14T11:53:04.112Z,9.40
2018-12-14T11:54:04.024Z,9.30
2018-12-14T11:55:03.939Z,9.20
2018-12-14T11:56:03.852Z,9.30
2018-12-14T11:57:03.763Z,9.80
2018-12-14T11:58:03.676Z,9.40
2018-12-14T11:59:03.600Z,9.70
2018-12-14T12:00:03.514Z,9.20
2018-12-14T12:01:03.425Z,9.20
2018-12-14T12:02:03.338Z,8.30
2018-12-14T12:03:03.251Z,8.80
2018-12-14T12:04:03.212Z,8.80
2018-12-14T12:05:03.076Z,8.70
2018-12-14T12:06:02.989Z,8.60
2018-12-14T12:07:02.970Z,8.60
2018-12-14T12:08:02.816Z,8.20
2018-12-14T12:09:02.728Z,8.40
2018-12-14T12:10:02.640Z,8.80
2018-12-14T12:11:02.566Z,8.70
2018-12-14T12:12:02.476Z,8.40
2018-12-14T12:13:02.423Z,8.40
2018-12-14T12:14:02.301Z,8.30
2018-12-14T12:15:02.215Z,8.20
2018-12-14T12:16:02.132Z,8.50
2018-12-14T12:17:02.041Z,8.10
2018-12-14T12:18:01.956Z,8.10
2018-12-14T12:19:01.865Z,8.30
2018-12-14T12:20:01.778Z,8.10
2018-12-14T12:21:01.692Z,8.70
2018-12-14T12:22:01.605Z,8.40
2018-12-14T12:23:01.527Z,8.50
2018-12-14T12:24:01.443Z,8.60
2018-12-14T12:25:01.359Z,8.20
2018-12-14T12:26:01.268Z,8.10
2018-12-14T12:27:01.178Z,7.70
2018-12-14T12:28:01.093Z,8.40
2018-12-14T12:29:01.004Z,7.90
2018-12-14T12:30:00.982Z,8.30
2018-12-14T12:31:00.828Z,8.60
2018-12-14T12:32:00.742Z,8.60
2018-12-14T12:33:00.653Z,9.20
2018-12-14T12:34:00.567Z,8.20
2018-12-14T12:35:00.491Z,8.70
2018-12-14T12:36:00.404Z,8.60
2018-12-14T12:37:00.317Z,8.90
2018-12-14T12:38:00.242Z,8.60
2018-12-14T12:39:00.142Z,9.10
2018-12-14T12:40:00.057Z,9.30
2018-12-14T12:40:59.968Z,8.90
2018-12-14T12:41:59.879Z,8.90
2018-12-14T12:42:59.794Z,9.40
2018-12-14T12:43:59.704Z,9.20
2018-12-14T12:44:59.618Z,9.20
2018-12-14T12:45:59.530Z,9.60
2018-12-14T12:46:59.442Z,9.60
2018-12-14T12:47:59.369Z,8.80
2018-12-14T12:48:59.285Z,8.80
2018-12-14T12:49:59.196Z,8.40
2018-12-14T12:51:03.113Z,8.90
2018-12-14T12:51:59.020Z,9.50
2018-12-14T12:52:58.931Z,9.60
2018-12-14T12:53:58.844Z,8.90